Portland, Oregon
Traffic Map
Current Weather Conditions
Portland, Oregon
Scattered Clouds
Scattered Clouds
17°
Feels Like: 17°
Wind Chill: 17° Ceiling: Unl
Heat Index: 17° Visibility: 10mi
Dew Point: 10° Wind: 3mph
Humidity: 63% Direction: 120° (ESE)
Pressure: 30.07in Gusts: 0mph
Raw Report DataKPDX 310553Z 12003KT 10SM SCT100 SCT260 17/10 A3007 RMK AO2 SLP182 T01720100 10222 20167 51010 $
Traffic Incident Summary
Active as of:
Severity:
Category:
InformationThere was an issue retrieving the traffic information for this location. Please try a different location or try again shortly.
Advertisements
Track Severe Weather on mobile